Time;durP1;ratioP1;P1;durP2;ratioP2;P2;SDS_P1;SDS_P2;PMS_P1;PMS_P2;Temp;Humidity;BMP_temperature;BMP_pressure;BME280_temperature;BME280_humidity;BME280_pressure;Samples;Min_cycle;Max_cycle;Signal;HPM_P1;HPM_P2
2022/07/09 00:01:33;;;;;;;1.00;0.50;;;17.70;1.00;;;;;;5137843;27;20444;-73
2022/07/09 00:04:00;;;;;;;0.53;0.40;;;17.60;1.00;;;;;;5137371;27;20483;-73
2022/07/09 00:06:28;;;;;;;0.90;0.70;;;17.50;1.00;;;;;;5136860;27;20754;-73
2022/07/09 00:08:55;;;;;;;1.00;0.73;;;17.40;1.00;;;;;;5136196;27;20529;-73
2022/07/09 00:11:22;;;;;;;1.10;0.50;;;17.40;1.00;;;;;;5136901;27;20555;-73
2022/07/09 00:13:49;;;;;;;0.63;0.50;;;17.40;1.00;;;;;;5136927;27;20456;-73
2022/07/09 00:16:16;;;;;;;0.90;0.60;;;17.40;1.00;;;;;;5137648;27;20480;-73
2022/07/09 00:18:44;;;;;;;1.40;0.63;;;17.50;1.00;;;;;;5136686;27;20563;-74
2022/07/09 00:21:11;;;;;;;1.00;0.50;;;17.50;1.00;;;;;;5137272;27;20448;-73
2022/07/09 00:23:38;;;;;;;1.17;0.60;;;17.50;1.00;;;;;;5137157;27;20531;-71
2022/07/09 00:26:05;;;;;;;1.13;0.40;;;17.50;1.00;;;;;;5137250;27;20816;-72
2022/07/09 00:28:33;;;;;;;0.60;0.40;;;17.50;1.00;;;;;;5137564;27;20456;-72
2022/07/09 00:31:00;;;;;;;1.20;0.70;;;17.50;1.00;;;;;;5137320;27;20511;-72
2022/07/09 00:33:27;;;;;;;1.00;0.47;;;17.40;1.00;;;;;;5137219;27;20460;-72
2022/07/09 00:35:56;;;;;;;2.00;0.60;;;17.40;1.00;;;;;;5137534;27;20871;-73
2022/07/09 00:38:23;;;;;;;1.00;0.53;;;17.40;1.00;;;;;;5137385;27;20930;-73
2022/07/09 00:40:50;;;;;;;1.03;0.60;;;17.40;1.00;;;;;;5135357;27;20948;-73
2022/07/09 00:43:18;;;;;;;0.70;0.43;;;17.40;1.00;;;;;;5134998;27;20542;-73
2022/07/09 00:45:46;;;;;;;0.83;0.60;;;17.40;1.00;;;;;;5134867;27;20470;-71
2022/07/09 00:48:13;;;;;;;0.80;0.50;;;17.40;1.00;;;;;;5135010;27;20451;-73
2022/07/09 00:50:42;;;;;;;0.73;0.50;;;17.30;1.00;;;;;;5134870;28;20483;-73
2022/07/09 00:53:12;;;;;;;2.27;0.60;;;17.30;1.00;;;;;;5134716;27;20476;-71
2022/07/09 00:55:40;;;;;;;0.73;0.50;;;17.20;1.00;;;;;;5136829;27;20477;-73
2022/07/09 00:58:08;;;;;;;2.20;0.50;;;17.20;1.00;;;;;;5138791;27;20452;-74
2022/07/09 01:00:36;;;;;;;0.87;0.40;;;17.30;1.00;;;;;;5141284;27;20483;-73
2022/07/09 01:03:03;;;;;;;0.70;0.50;;;17.30;1.00;;;;;;5141076;27;20455;-74
2022/07/09 01:05:35;;;;;;;0.70;0.50;;;17.30;1.00;;;;;;5141088;27;20886;-73
2022/07/09 01:08:03;;;;;;;0.50;0.40;;;17.20;1.00;;;;;;5141161;27;20455;-73
2022/07/09 01:10:32;;;;;;;1.50;0.50;;;17.20;1.00;;;;;;5141203;27;20478;-73
2022/07/09 01:12:59;;;;;;;0.97;0.47;;;17.20;1.00;;;;;;5141097;27;20451;-73
2022/07/09 01:15:26;;;;;;;0.70;0.47;;;17.10;1.00;;;;;;5141103;27;20443;-74
2022/07/09 01:17:55;;;;;;;0.80;0.53;;;17.10;1.00;;;;;;5140980;27;20460;-73
2022/07/09 01:20:25;;;;;;;0.90;0.40;;;17.10;1.00;;;;;;5141155;27;20447;-73
2022/07/09 01:22:52;;;;;;;1.80;0.60;;;17.10;1.00;;;;;;5140800;27;20487;-73
2022/07/09 01:25:20;;;;;;;2.10;0.60;;;17.10;1.00;;;;;;5140761;27;20479;-73
2022/07/09 01:27:48;;;;;;;0.93;0.50;;;17.10;1.00;;;;;;5140645;27;20808;-73
2022/07/09 01:30:26;;;;;;;0.80;0.50;;;17.10;1.00;;;;;;5141002;27;20479;-73
2022/07/09 01:32:53;;;;;;;0.70;0.50;;;17.10;1.00;;;;;;5140469;27;20454;-73
2022/07/09 01:35:21;;;;;;;1.00;0.50;;;17.10;1.00;;;;;;5140628;27;20443;-73
2022/07/09 01:37:49;;;;;;;1.10;0.60;;;17.20;1.00;;;;;;5140386;27;20518;-73
2022/07/09 01:40:16;;;;;;;1.30;0.50;;;17.10;1.00;;;;;;5139876;27;20447;-73
2022/07/09 01:42:43;;;;;;;0.70;0.50;;;17.10;1.00;;;;;;5140228;27;20451;-73
2022/07/09 01:45:11;;;;;;;0.97;0.60;;;17.00;1.00;;;;;;5140175;27;20520;-73
2022/07/09 01:47:38;;;;;;;1.00;0.50;;;16.90;1.00;;;;;;5140257;27;20440;-73
2022/07/09 01:50:06;;;;;;;0.93;0.50;;;16.90;1.00;;;;;;5139779;27;20571;-73
2022/07/09 01:52:34;;;;;;;0.80;0.60;;;16.90;1.00;;;;;;5121893;27;20440;-73
2022/07/09 01:55:03;;;;;;;0.90;0.50;;;16.90;1.00;;;;;;5140419;27;20447;-74
2022/07/09 01:57:30;;;;;;;0.83;0.50;;;16.90;1.00;;;;;;5140126;27;20754;-73
2022/07/09 01:59:56;;;;;;;1.60;0.57;;;16.90;1.00;;;;;;5139921;27;20468;-73
2022/07/09 02:02:23;;;;;;;1.17;0.60;;;16.90;1.00;;;;;;5140107;27;20466;-73
2022/07/09 02:04:50;;;;;;;1.73;0.50;;;17.00;1.00;;;;;;5140313;27;20439;-73
2022/07/09 02:07:18;;;;;;;0.83;0.60;;;17.10;1.00;;;;;;5140088;27;20439;-73
2022/07/09 02:09:45;;;;;;;0.90;0.53;;;17.00;1.00;;;;;;5139818;27;20809;-73
2022/07/09 02:12:13;;;;;;;1.40;0.60;;;17.00;1.00;;;;;;5140340;27;20485;-73
2022/07/09 02:14:40;;;;;;;0.80;0.50;;;17.10;1.00;;;;;;5139782;27;20477;-73
2022/07/09 02:17:07;;;;;;;0.90;0.40;;;17.10;1.00;;;;;;5139782;27;20504;-73
2022/07/09 02:19:34;;;;;;;2.93;0.40;;;17.00;1.00;;;;;;5139883;27;20459;-73
2022/07/09 02:22:01;;;;;;;1.73;0.60;;;17.00;1.00;;;;;;5140007;27;20475;-73
2022/07/09 02:24:28;;;;;;;1.33;0.47;;;16.80;1.00;;;;;;5139574;27;20459;-74
2022/07/09 02:26:55;;;;;;;0.57;0.40;;;16.70;1.00;;;;;;5139467;27;20451;-73
2022/07/09 02:29:23;;;;;;;0.80;0.50;;;16.60;1.00;;;;;;5138932;27;20526;-73
2022/07/09 02:31:50;;;;;;;0.87;0.50;;;16.60;1.00;;;;;;5139180;27;20541;-73
2022/07/09 02:34:17;;;;;;;0.90;0.63;;;16.60;1.00;;;;;;5138723;27;20451;-73
2022/07/09 02:36:44;;;;;;;0.70;0.40;;;16.60;1.00;;;;;;5139609;27;20448;-73
2022/07/09 02:39:11;;;;;;;0.70;0.47;;;16.60;1.00;;;;;;5139291;27;20521;-74
2022/07/09 02:41:38;;;;;;;1.57;0.40;;;16.50;1.00;;;;;;5139662;27;20432;-74
2022/07/09 02:44:05;;;;;;;0.77;0.50;;;16.40;1.00;;;;;;5139350;27;20895;-73
2022/07/09 02:46:34;;;;;;;0.80;0.50;;;16.40;1.00;;;;;;5138987;27;20501;-73
2022/07/09 02:49:01;;;;;;;0.97;0.50;;;16.30;1.00;;;;;;5139096;27;20451;-73
2022/07/09 02:51:28;;;;;;;0.83;0.63;;;16.30;1.00;;;;;;5139279;27;20897;-73
2022/07/09 02:53:55;;;;;;;1.90;0.50;;;16.30;19.60;;;;;;5139601;27;20556;-73
2022/07/09 02:56:22;;;;;;;0.70;0.50;;;16.30;39.10;;;;;;5139003;27;20944;-73
2022/07/09 02:58:49;;;;;;;0.70;0.40;;;16.30;32.60;;;;;;5139476;27;20952;-73
2022/07/09 03:01:16;;;;;;;1.33;0.50;;;16.30;17.50;;;;;;5138880;27;20805;-73
2022/07/09 03:03:44;;;;;;;1.50;0.97;;;16.30;45.60;;;;;;5139285;27;20520;-73
2022/07/09 03:06:12;;;;;;;1.43;0.50;;;16.30;19.50;;;;;;5138862;27;20497;-73
2022/07/09 03:08:39;;;;;;;0.70;0.50;;;16.20;89.40;;;;;;5139145;27;20463;-73
2022/07/09 03:11:07;;;;;;;0.80;0.50;;;16.10;99.90;;;;;;5138955;27;20536;-74
2022/07/09 03:13:34;;;;;;;1.67;0.50;;;16.10;99.90;;;;;;5139103;27;20498;-73
2022/07/09 03:16:01;;;;;;;1.37;0.50;;;16.10;99.90;;;;;;5139237;27;20786;-74
2022/07/09 03:18:28;;;;;;;1.73;0.57;;;16.10;99.90;;;;;;5139035;27;20967;-73
2022/07/09 03:20:56;;;;;;;0.70;0.50;;;16.00;99.90;;;;;;5137740;27;20439;-73
2022/07/09 03:23:23;;;;;;;0.80;0.50;;;16.00;99.90;;;;;;5138498;27;20864;-74
2022/07/09 03:25:50;;;;;;;1.07;0.40;;;16.00;99.90;;;;;;5138196;27;20516;-73
2022/07/09 03:28:18;;;;;;;0.70;0.50;;;16.00;99.90;;;;;;5138242;27;20459;-73
2022/07/09 03:30:45;;;;;;;2.80;0.50;;;16.10;99.90;;;;;;5129833;27;20483;-74
2022/07/09 03:33:12;;;;;;;0.90;0.60;;;16.10;99.90;;;;;;5138160;27;20538;-73
2022/07/09 03:35:39;;;;;;;1.10;0.90;;;16.10;99.90;;;;;;5138612;27;20512;-73
2022/07/09 03:38:07;;;;;;;0.60;0.40;;;16.10;99.90;;;;;;5131684;27;20518;-73
2022/07/09 03:40:35;;;;;;;1.10;0.60;;;16.10;99.90;;;;;;5137420;27;20447;-73
2022/07/09 03:43:02;;;;;;;0.90;0.50;;;16.10;99.90;;;;;;5132317;27;20453;-73
2022/07/09 03:45:29;;;;;;;1.00;0.60;;;16.10;99.90;;;;;;5136278;27;20451;-73
2022/07/09 03:47:56;;;;;;;1.00;0.50;;;16.20;99.90;;;;;;5132490;27;20461;-73
2022/07/09 03:50:23;;;;;;;0.90;0.50;;;16.30;99.90;;;;;;5135001;27;20475;-73
2022/07/09 03:52:50;;;;;;;0.90;0.60;;;16.30;91.60;;;;;;5137617;27;20463;-73
2022/07/09 03:55:18;;;;;;;1.60;0.67;;;16.20;99.90;;;;;;5138007;27;20895;-74
2022/07/09 03:57:45;;;;;;;0.80;0.60;;;16.20;99.90;;;;;;5133983;27;20484;-73
2022/07/09 04:00:13;;;;;;;0.90;0.70;;;16.20;99.90;;;;;;5133732;27;20531;-74
2022/07/09 04:02:40;;;;;;;1.17;0.50;;;16.20;99.90;;;;;;5134913;27;20473;-73
2022/07/09 04:05:09;;;;;;;2.13;0.70;;;16.20;99.90;;;;;;5132742;27;20472;-72
2022/07/09 04:07:36;;;;;;;2.10;0.50;;;16.20;99.90;;;;;;5137184;27;20448;-73
2022/07/09 04:10:03;;;;;;;1.03;0.60;;;16.20;99.90;;;;;;5137419;27;20444;-73
2022/07/09 04:12:31;;;;;;;1.13;0.53;;;16.00;99.90;;;;;;5136654;27;20843;-75
2022/07/09 04:14:58;;;;;;;0.70;0.50;;;16.00;99.90;;;;;;5137325;27;20451;-73
2022/07/09 04:17:25;;;;;;;1.07;0.63;;;16.00;99.90;;;;;;5137639;27;20443;-73
2022/07/09 04:19:52;;;;;;;0.60;0.50;;;16.00;99.90;;;;;;5137250;27;20447;-72
2022/07/09 04:22:19;;;;;;;3.90;0.50;;;16.00;99.90;;;;;;5137515;27;20798;-74
2022/07/09 04:24:46;;;;;;;0.80;0.50;;;16.10;99.90;;;;;;5136849;27;20496;-73
2022/07/09 04:27:13;;;;;;;5.07;1.17;;;16.10;99.90;;;;;;5136417;27;20451;-73
2022/07/09 04:29:41;;;;;;;2.10;0.60;;;16.10;99.90;;;;;;5136633;27;20486;-73
2022/07/09 04:32:09;;;;;;;0.90;0.60;;;16.20;99.90;;;;;;5136298;27;20484;-73
2022/07/09 04:34:36;;;;;;;0.70;0.50;;;16.30;99.90;;;;;;5137103;27;20607;-73
2022/07/09 04:37:03;;;;;;;0.80;0.50;;;16.30;99.90;;;;;;5136256;27;20436;-73
2022/07/09 04:39:30;;;;;;;0.70;0.50;;;16.30;99.90;;;;;;5136996;27;20512;-73
2022/07/09 04:41:57;;;;;;;1.07;0.57;;;16.30;99.90;;;;;;5137386;27;20443;-73
2022/07/09 04:44:24;;;;;;;1.17;0.50;;;16.30;99.90;;;;;;5137190;27;20513;-74
2022/07/09 04:46:52;;;;;;;0.80;0.50;;;16.30;99.90;;;;;;5136490;27;20461;-73
2022/07/09 04:49:20;;;;;;;0.77;0.50;;;16.20;99.90;;;;;;5135227;27;20455;-73
2022/07/09 04:51:47;;;;;;;0.70;0.50;;;16.20;99.90;;;;;;5135148;27;20482;-73
2022/07/09 04:54:14;;;;;;;1.63;0.50;;;16.30;99.90;;;;;;5135322;27;20784;-73
2022/07/09 04:56:41;;;;;;;0.60;0.50;;;16.30;99.90;;;;;;5137006;27;20504;-74
2022/07/09 04:59:08;;;;;;;1.10;0.60;;;16.40;99.90;;;;;;5137137;27;20451;-73
2022/07/09 05:01:35;;;;;;;1.00;0.60;;;16.40;99.90;;;;;;5137039;27;20436;-73
2022/07/09 05:04:04;;;;;;;0.70;0.50;;;16.40;99.90;;;;;;5137251;27;20479;-73
2022/07/09 05:06:31;;;;;;;1.23;0.60;;;16.50;99.90;;;;;;5137158;27;20761;-73
2022/07/09 05:08:58;;;;;;;0.73;0.50;;;16.50;99.90;;;;;;5137419;27;20512;-73
2022/07/09 05:11:25;;;;;;;0.80;0.50;;;16.50;99.90;;;;;;5137126;27;20479;-72
2022/07/09 05:13:52;;;;;;;1.43;0.60;;;16.40;99.90;;;;;;5128621;27;20889;-73
2022/07/09 05:16:19;;;;;;;1.73;0.40;;;16.40;99.90;;;;;;5136535;27;20496;-72
2022/07/09 05:18:46;;;;;;;0.90;0.60;;;16.50;99.90;;;;;;5136955;27;20475;-73
2022/07/09 05:21:14;;;;;;;1.33;0.60;;;16.50;99.90;;;;;;5136879;27;20891;-73
2022/07/09 05:23:41;;;;;;;1.33;0.57;;;16.50;99.90;;;;;;5128568;27;20476;-73
2022/07/09 05:26:08;;;;;;;0.97;0.60;;;16.40;99.90;;;;;;5137084;27;20456;-73
2022/07/09 05:28:35;;;;;;;2.00;0.60;;;16.30;99.90;;;;;;5136812;27;20501;-73
2022/07/09 05:31:03;;;;;;;0.90;0.50;;;16.40;99.90;;;;;;5136604;27;20903;-74
2022/07/09 05:33:30;;;;;;;0.70;0.50;;;16.50;99.90;;;;;;5136023;27;20455;-73
2022/07/09 05:35:57;;;;;;;0.97;0.60;;;16.60;99.90;;;;;;5135618;27;20440;-74
2022/07/09 05:38:25;;;;;;;3.07;0.70;;;16.70;99.90;;;;;;5136584;27;20451;-73
2022/07/09 05:40:52;;;;;;;1.27;0.60;;;16.80;99.90;;;;;;5137661;27;20451;-74
2022/07/09 05:43:19;;;;;;;2.70;0.50;;;16.80;97.30;;;;;;5138140;27;20520;-74
2022/07/09 05:45:46;;;;;;;1.50;0.70;;;16.70;99.90;;;;;;5142048;27;20479;-74
2022/07/09 05:48:13;;;;;;;1.33;0.60;;;16.70;98.30;;;;;;5143540;27;20456;-74
2022/07/09 05:50:40;;;;;;;3.23;0.60;;;16.70;99.90;;;;;;5144135;27;20465;-73
2022/07/09 05:53:07;;;;;;;0.80;0.60;;;16.90;99.90;;;;;;5142407;27;20611;-74
2022/07/09 05:55:35;;;;;;;1.03;0.60;;;17.00;51.50;;;;;;5140372;27;20522;-73
2022/07/09 05:58:02;;;;;;;2.87;0.60;;;17.10;63.50;;;;;;5133121;27;20509;-74
2022/07/09 06:00:29;;;;;;;1.20;0.50;;;17.10;1.00;;;;;;5137424;27;20887;-73
2022/07/09 06:02:56;;;;;;;2.23;0.70;;;17.10;12.20;;;;;;5139454;27;20496;-73
2022/07/09 06:05:23;;;;;;;1.50;0.57;;;17.00;25.00;;;;;;5139480;27;20459;-73
2022/07/09 06:07:50;;;;;;;1.27;0.70;;;17.10;29.60;;;;;;5139277;27;20452;-73
2022/07/09 06:10:18;;;;;;;1.00;0.60;;;17.10;66.50;;;;;;5139019;27;20463;-76
2022/07/09 06:12:46;;;;;;;0.70;0.50;;;17.10;39.50;;;;;;5140524;27;20529;-76
2022/07/09 06:15:13;;;;;;;0.90;0.53;;;17.00;89.70;;;;;;5140285;27;20448;-76
2022/07/09 06:17:40;;;;;;;0.97;0.80;;;17.00;99.90;;;;;;5141002;27;20508;-75
2022/07/09 06:20:08;;;;;;;0.80;0.60;;;17.20;70.10;;;;;;5140356;27;20452;-76
2022/07/09 06:22:35;;;;;;;1.10;0.70;;;17.20;31.00;;;;;;5137148;27;20509;-75
2022/07/09 06:25:03;;;;;;;0.90;0.53;;;17.40;6.30;;;;;;5133629;27;20501;-74
2022/07/09 06:27:29;;;;;;;1.23;0.60;;;17.60;1.00;;;;;;5127778;27;20436;-75
2022/07/09 06:29:58;;;;;;;2.10;0.50;;;17.80;1.00;;;;;;5122528;27;20502;-73
2022/07/09 06:32:25;;;;;;;0.80;0.70;;;18.10;1.00;;;;;;5135934;27;20933;-73
2022/07/09 06:34:52;;;;;;;1.97;0.63;;;18.30;1.00;;;;;;5136063;27;20514;-74
2022/07/09 06:37:19;;;;;;;1.03;0.60;;;18.30;1.00;;;;;;5137714;27;20505;-74
2022/07/09 06:39:48;;;;;;;1.27;0.60;;;18.40;1.00;;;;;;5138408;27;20456;-74
2022/07/09 06:42:16;;;;;;;2.17;0.50;;;18.50;1.00;;;;;;5131744;27;20525;-75
2022/07/09 06:44:43;;;;;;;0.80;0.50;;;18.70;1.00;;;;;;5127818;27;20948;-75
2022/07/09 06:47:12;;;;;;;0.70;0.50;;;18.80;1.00;;;;;;5132705;27;20444;-74
2022/07/09 06:49:39;;;;;;;0.87;0.60;;;19.00;1.00;;;;;;5129130;27;20484;-75
2022/07/09 06:52:09;;;;;;;1.17;0.50;;;19.00;1.00;;;;;;5134149;27;20515;-74
2022/07/09 06:54:36;;;;;;;0.90;0.60;;;19.00;1.00;;;;;;5137343;27;20503;-74
2022/07/09 06:57:04;;;;;;;1.10;0.60;;;19.10;1.00;;;;;;5137561;27;20497;-73
2022/07/09 06:59:31;;;;;;;0.80;0.60;;;19.20;1.00;;;;;;5138406;27;20961;-73
2022/07/09 07:01:58;;;;;;;1.10;0.50;;;19.10;1.00;;;;;;5130117;27;20497;-74
2022/07/09 07:04:26;;;;;;;1.27;0.50;;;19.20;1.00;;;;;;5121358;27;20452;-74
2022/07/09 07:06:54;;;;;;;2.22;0.60;;;19.30;1.00;;;;;;5130466;27;20496;-72
2022/07/09 07:09:22;;;;;;;0.80;0.57;;;19.30;1.00;;;;;;5126726;27;20285;-73
2022/07/09 07:11:55;;;;;;;0.90;0.60;;;19.50;1.00;;;;;;5119635;27;20512;-73
2022/07/09 07:14:22;;;;;;;0.60;0.50;;;19.60;1.00;;;;;;5117411;28;20488;-73
2022/07/09 07:16:49;;;;;;;2.03;0.70;;;19.60;1.00;;;;;;5117231;28;20494;-73
2022/07/09 07:19:16;;;;;;;1.70;0.60;;;19.80;1.00;;;;;;5122614;27;20897;-74
2022/07/09 07:21:45;;;;;;;0.97;0.50;;;20.20;1.00;;;;;;5135711;27;20907;-74
2022/07/09 07:24:13;;;;;;;1.20;0.60;;;20.50;1.00;;;;;;5120548;27;20558;-75
2022/07/09 07:26:40;;;;;;;1.00;0.60;;;20.70;1.00;;;;;;5129956;27;20437;-74
2022/07/09 07:29:07;;;;;;;0.97;0.60;;;20.80;1.00;;;;;;5136611;27;20526;-74
2022/07/09 07:31:34;;;;;;;0.70;0.60;;;20.80;1.00;;;;;;5124140;27;20483;-74
2022/07/09 07:34:01;;;;;;;0.80;0.60;;;20.80;1.00;;;;;;5128944;27;20482;-74
2022/07/09 07:36:28;;;;;;;1.13;0.50;;;20.90;1.00;;;;;;5115758;28;20749;-73
2022/07/09 07:38:57;;;;;;;0.83;0.60;;;20.80;1.00;;;;;;5124921;27;20447;-73
2022/07/09 07:41:28;;;;;;;1.30;0.50;;;21.00;1.00;;;;;;5134614;27;20439;-72
2022/07/09 07:43:55;;;;;;;0.80;0.40;;;21.00;1.00;;;;;;5128861;27;20478;-72
2022/07/09 07:46:22;;;;;;;0.60;0.47;;;21.10;1.00;;;;;;5133543;27;20494;-74
2022/07/09 07:48:49;;;;;;;0.70;0.47;;;21.20;1.00;;;;;;5124781;27;20511;-72
2022/07/09 07:51:16;;;;;;;1.70;0.50;;;21.20;1.00;;;;;;5119241;27;20436;-73
2022/07/09 07:53:43;;;;;;;0.80;0.60;;;21.20;1.00;;;;;;5133823;27;20483;-73
2022/07/09 07:56:11;;;;;;;1.00;0.60;;;21.30;1.00;;;;;;5134542;27;20455;-73
2022/07/09 07:58:38;;;;;;;0.90;0.60;;;21.50;1.00;;;;;;5136077;27;20455;-72
2022/07/09 08:01:06;;;;;;;2.00;0.70;;;21.60;1.00;;;;;;5134160;27;20475;-73
2022/07/09 08:03:33;;;;;;;1.07;0.50;;;21.60;1.00;;;;;;5134875;27;20452;-72
2022/07/09 08:06:00;;;;;;;0.90;0.57;;;21.60;1.00;;;;;;5136020;27;20887;-73
2022/07/09 08:08:28;;;;;;;0.83;0.50;;;21.70;1.00;;;;;;5128981;27;20456;-72
2022/07/09 08:10:55;;;;;;;1.10;0.53;;;21.70;1.00;;;;;;5124079;27;20498;-73
2022/07/09 08:13:23;;;;;;;3.37;0.50;;;21.70;1.00;;;;;;5123135;27;20806;-73
2022/07/09 08:15:50;;;;;;;1.03;0.50;;;21.80;1.00;;;;;;5136578;27;20440;-73
2022/07/09 08:18:17;;;;;;;0.73;0.40;;;21.90;1.00;;;;;;5129300;27;20460;-72
2022/07/09 08:20:44;;;;;;;0.50;0.40;;;21.90;1.00;;;;;;5136194;27;20448;-73
2022/07/09 08:23:11;;;;;;;3.53;0.50;;;21.90;1.00;;;;;;5135684;27;20451;-72
2022/07/09 08:25:38;;;;;;;0.60;0.50;;;22.00;1.00;;;;;;5137267;27;20452;-72
2022/07/09 08:28:05;;;;;;;0.53;0.40;;;22.20;1.00;;;;;;5131893;27;20505;-72
2022/07/09 08:30:34;;;;;;;0.87;0.50;;;22.40;1.00;;;;;;5136762;27;20479;-72
2022/07/09 08:33:00;;;;;;;0.80;0.40;;;22.50;1.00;;;;;;5128338;27;20481;-72
2022/07/09 08:35:28;;;;;;;0.70;0.40;;;22.60;1.00;;;;;;5134461;27;20443;-72
2022/07/09 08:37:55;;;;;;;1.03;0.40;;;22.40;1.00;;;;;;5136203;27;20932;-72
2022/07/09 08:40:22;;;;;;;0.63;0.50;;;22.50;1.00;;;;;;5104421;28;20449;-74
2022/07/09 08:42:50;;;;;;;1.53;0.43;;;22.50;1.00;;;;;;5115955;28;20811;-74
2022/07/09 08:45:18;;;;;;;2.10;0.70;;;22.70;1.00;;;;;;5130505;27;20456;-73
2022/07/09 08:47:47;;;;;;;1.00;0.50;;;22.80;1.00;;;;;;5134679;27;20452;-73
2022/07/09 08:50:14;;;;;;;0.63;0.47;;;22.80;1.00;;;;;;5124453;27;20544;-73
2022/07/09 08:52:42;;;;;;;0.90;0.40;;;22.80;1.00;;;;;;5134737;28;20483;-73
2022/07/09 08:55:10;;;;;;;1.67;0.40;;;22.80;1.00;;;;;;5113551;28;20463;-73
2022/07/09 08:57:38;;;;;;;0.53;0.47;;;23.00;1.00;;;;;;5121808;27;20546;-73
2022/07/09 09:00:06;;;;;;;0.80;0.50;;;23.30;1.00;;;;;;5134595;28;20522;-73
2022/07/09 09:02:37;;;;;;;0.43;0.40;;;23.40;1.00;;;;;;5131841;28;20481;-73
2022/07/09 09:05:17;;;;;;;1.47;0.40;;;23.40;1.00;;;;;;5133216;27;20512;-73
2022/07/09 09:07:44;;;;;;;1.13;0.50;;;23.50;1.00;;;;;;5133668;27;20478;-73
2022/07/09 09:10:22;;;;;;;0.60;0.50;;;23.50;1.00;;;;;;5134889;27;20440;-73
2022/07/09 09:12:50;;;;;;;1.60;0.50;;;23.70;1.00;;;;;;5135788;28;20644;-74
2022/07/09 09:15:18;;;;;;;1.10;0.40;;;23.60;1.00;;;;;;5135443;27;20521;-74
2022/07/09 09:17:46;;;;;;;1.47;0.43;;;23.40;1.00;;;;;;5121977;27;21117;-75
2022/07/09 09:20:15;;;;;;;0.70;0.50;;;23.60;1.00;;;;;;5121773;27;20443;-75
2022/07/09 09:22:47;;;;;;;1.27;0.47;;;23.60;1.00;;;;;;5137829;27;20455;-74
2022/07/09 09:25:18;;;;;;;0.60;0.30;;;23.50;1.00;;;;;;5118404;27;20485;-75
2022/07/09 09:27:53;;;;;;;0.60;0.40;;;23.70;1.00;;;;;;5117644;27;20491;-74
2022/07/09 09:30:20;;;;;;;0.83;0.40;;;24.00;1.00;;;;;;5101808;27;20495;-75
2022/07/09 09:32:56;;;;;;;0.70;0.40;;;24.30;1.00;;;;;;5122307;27;20815;-74
2022/07/09 09:35:25;;;;;;;2.80;0.40;;;24.40;1.00;;;;;;5139007;27;20763;-74
2022/07/09 09:37:52;;;;;;;0.60;0.40;;;24.30;1.00;;;;;;5130648;27;20471;-74
2022/07/09 09:40:19;;;;;;;0.70;0.40;;;24.00;1.00;;;;;;5107299;27;20519;-74
2022/07/09 09:42:47;;;;;;;0.80;0.50;;;24.00;1.00;;;;;;5118738;27;20518;-75
2022/07/09 09:45:15;;;;;;;0.70;0.50;;;24.00;1.00;;;;;;5122099;27;20512;-74
2022/07/09 09:47:47;;;;;;;1.37;0.37;;;24.10;1.00;;;;;;5121836;27;20460;-73
2022/07/09 09:50:18;;;;;;;0.90;0.50;;;24.30;1.00;;;;;;5122946;27;20454;-74
2022/07/09 09:52:48;;;;;;;0.93;0.50;;;24.40;1.00;;;;;;5126520;27;20799;-74
2022/07/09 09:55:16;;;;;;;0.60;0.40;;;24.40;1.00;;;;;;5123136;27;20510;-72
2022/07/09 09:57:43;;;;;;;0.60;0.47;;;24.60;1.00;;;;;;5127172;27;20817;-73
2022/07/09 10:00:12;;;;;;;0.60;0.30;;;24.70;1.00;;;;;;5138999;27;20504;-73
2022/07/09 10:02:43;;;;;;;1.57;0.50;;;24.30;1.00;;;;;;5135171;27;20451;-73
2022/07/09 10:05:10;;;;;;;0.60;0.30;;;24.10;1.00;;;;;;5136315;27;20752;-73
2022/07/09 10:07:37;;;;;;;0.50;0.40;;;24.10;1.00;;;;;;5134580;27;20460;-71
2022/07/09 10:10:07;;;;;;;0.50;0.40;;;24.30;1.00;;;;;;5137902;27;20452;-71
2022/07/09 10:12:36;;;;;;;0.60;0.37;;;24.20;1.00;;;;;;5134831;27;20483;-71
2022/07/09 10:15:03;;;;;;;0.60;0.43;;;24.20;1.00;;;;;;5137528;27;21275;-72
2022/07/09 10:17:40;;;;;;;0.77;0.40;;;24.20;1.00;;;;;;5129451;27;20459;-72
2022/07/09 10:20:10;;;;;;;0.50;0.40;;;24.50;1.00;;;;;;5127116;27;20459;-71
2022/07/09 10:22:38;;;;;;;0.70;0.40;;;25.00;1.00;;;;;;5134256;27;20455;-71
2022/07/09 10:25:08;;;;;;;0.87;0.30;;;25.30;1.00;;;;;;5136683;27;20444;-72
2022/07/09 10:27:43;;;;;;;1.27;0.40;;;25.30;1.00;;;;;;5129788;27;20463;-71
2022/07/09 10:30:24;;;;;;;0.50;0.30;;;25.10;1.00;;;;;;5136647;27;20959;-72
2022/07/09 10:33:03;;;;;;;0.93;0.50;;;25.30;1.00;;;;;;5122110;27;20480;-71
2022/07/09 10:35:30;;;;;;;0.60;0.33;;;25.30;1.00;;;;;;5129498;27;20463;-72
2022/07/09 10:37:57;;;;;;;0.60;0.40;;;25.50;1.00;;;;;;5125965;27;20460;-72
2022/07/09 10:40:27;;;;;;;0.50;0.30;;;26.00;1.00;;;;;;5130280;27;20456;-72
2022/07/09 10:43:02;;;;;;;0.70;0.30;;;26.10;1.00;;;;;;5119671;27;20808;-72
2022/07/09 10:45:31;;;;;;;0.60;0.40;;;26.40;1.00;;;;;;5116699;27;20453;-72
2022/07/09 10:48:00;;;;;;;0.70;0.30;;;26.80;1.00;;;;;;5134577;27;20452;-73
2022/07/09 10:50:28;;;;;;;0.77;0.30;;;27.20;1.00;;;;;;5127018;27;21096;-72
2022/07/09 10:52:56;;;;;;;0.50;0.30;;;27.50;1.00;;;;;;5135109;27;20498;-72
2022/07/09 10:55:27;;;;;;;0.70;0.43;;;27.60;1.00;;;;;;5132053;27;20917;-72
2022/07/09 10:57:55;;;;;;;0.50;0.40;;;27.60;1.00;;;;;;5127138;27;20485;-72
2022/07/09 11:00:23;;;;;;;0.83;0.40;;;27.60;1.00;;;;;;5125338;27;20532;-72
2022/07/09 11:02:58;;;;;;;0.60;0.40;;;28.10;1.00;;;;;;5135595;27;20463;-72
2022/07/09 11:05:26;;;;;;;0.60;0.40;;;28.20;1.00;;;;;;5125335;27;20455;-72
2022/07/09 11:08:01;;;;;;;0.60;0.43;;;28.30;1.00;;;;;;5116676;27;20478;-72
2022/07/09 11:10:31;;;;;;;0.57;0.37;;;28.10;1.00;;;;;;5126722;27;20497;-72
2022/07/09 11:13:00;;;;;;;2.10;0.30;;;28.10;1.00;;;;;;5126435;27;20931;-72
2022/07/09 11:15:29;;;;;;;0.43;0.30;;;27.40;1.00;;;;;;5119606;27;20516;-73
2022/07/09 11:18:00;;;;;;;0.50;0.40;;;27.10;1.00;;;;;;5123495;27;20546;-72
2022/07/09 11:20:28;;;;;;;2.00;0.40;;;26.90;1.00;;;;;;5133955;27;20988;-73
2022/07/09 11:22:57;;;;;;;0.70;0.43;;;26.70;1.00;;;;;;5124908;27;20831;-72
2022/07/09 11:25:25;;;;;;;0.67;0.40;;;26.30;1.00;;;;;;5137811;27;20439;-74
2022/07/09 11:27:54;;;;;;;0.70;0.40;;;26.20;1.00;;;;;;5134728;27;20506;-73
2022/07/09 11:30:22;;;;;;;1.47;0.40;;;26.10;1.00;;;;;;5134076;27;20550;-73
2022/07/09 11:32:49;;;;;;;0.70;0.40;;;25.80;1.00;;;;;;5127027;27;20505;-73
2022/07/09 11:35:28;;;;;;;0.50;0.30;;;25.90;1.00;;;;;;5118451;27;20450;-74
2022/07/09 11:37:56;;;;;;;0.57;0.40;;;25.90;1.00;;;;;;5138121;27;20447;-74
2022/07/09 11:40:23;;;;;;;0.50;0.30;;;26.00;1.00;;;;;;5137655;27;20560;-73
2022/07/09 11:42:51;;;;;;;0.80;0.30;;;25.80;1.00;;;;;;5135444;27;20565;-73
2022/07/09 11:45:25;;;;;;;0.50;0.40;;;25.80;1.00;;;;;;5130920;27;20514;-73
2022/07/09 11:48:06;;;;;;;0.50;0.37;;;26.00;1.00;;;;;;5130693;27;20463;-73
2022/07/09 11:50:35;;;;;;;0.80;0.40;;;26.00;1.00;;;;;;5136107;27;20486;-74
2022/07/09 11:53:02;;;;;;;0.60;0.40;;;26.10;1.00;;;;;;5130736;27;20472;-73
2022/07/09 11:55:31;;;;;;;0.40;0.30;;;26.00;1.00;;;;;;5113256;28;20464;-73
2022/07/09 11:57:59;;;;;;;0.57;0.40;;;26.10;1.00;;;;;;5114937;27;20555;-73
2022/07/09 12:00:29;;;;;;;0.60;0.30;;;26.50;1.00;;;;;;5115768;28;20441;-73
2022/07/09 12:02:59;;;;;;;0.40;0.30;;;27.20;1.00;;;;;;5115124;28;20492;-72
2022/07/09 12:05:35;;;;;;;0.90;0.47;;;27.70;1.00;;;;;;5116074;28;20522;-73
2022/07/09 12:08:08;;;;;;;0.50;0.30;;;27.40;1.00;;;;;;5096753;28;20501;-72
2022/07/09 12:10:37;;;;;;;0.50;0.30;;;27.40;1.00;;;;;;5116411;28;20494;-73
2022/07/09 12:13:06;;;;;;;0.97;0.30;;;27.40;1.00;;;;;;5115516;28;20911;-72
2022/07/09 12:15:34;;;;;;;0.50;0.30;;;27.20;1.00;;;;;;5114023;28;20641;-72
2022/07/09 12:18:02;;;;;;;1.17;0.40;;;26.90;1.00;;;;;;5114863;28;20569;-71
2022/07/09 12:20:31;;;;;;;1.30;0.67;;;26.70;1.00;;;;;;5114865;28;20444;-73
2022/07/09 12:22:59;;;;;;;1.10;0.53;;;26.50;1.00;;;;;;5113403;28;20510;-72
2022/07/09 12:25:26;;;;;;;0.60;0.30;;;26.50;1.00;;;;;;5112768;28;20444;-73
2022/07/09 12:27:53;;;;;;;0.50;0.30;;;26.40;1.00;;;;;;5112692;28;20457;-72
2022/07/09 12:30:21;;;;;;;0.53;0.30;;;26.20;1.00;;;;;;5114075;28;20491;-73
2022/07/09 12:32:50;;;;;;;0.40;0.23;;;26.10;1.00;;;;;;5114603;28;20543;-73
2022/07/09 12:35:17;;;;;;;0.60;0.40;;;26.30;1.00;;;;;;5112130;28;20530;-72
2022/07/09 12:37:44;;;;;;;0.90;0.30;;;26.50;1.00;;;;;;5114111;28;20561;-72
2022/07/09 12:40:11;;;;;;;0.50;0.30;;;26.80;1.00;;;;;;5112687;28;20472;-72
2022/07/09 12:42:39;;;;;;;0.37;0.20;;;27.00;1.00;;;;;;5111766;28;20725;-74
2022/07/09 12:45:08;;;;;;;2.20;0.30;;;27.20;1.00;;;;;;5113282;28;20445;-72
2022/07/09 12:47:35;;;;;;;0.60;0.30;;;27.50;1.00;;;;;;5112418;28;20789;-74
2022/07/09 12:50:05;;;;;;;0.60;0.30;;;27.40;1.00;;;;;;5112647;28;20441;-73
2022/07/09 12:52:32;;;;;;;0.40;0.30;;;27.70;1.00;;;;;;5112124;28;20445;-72
2022/07/09 12:55:01;;;;;;;0.60;0.30;;;27.80;1.00;;;;;;5138693;27;20479;-73
2022/07/09 12:57:28;;;;;;;1.47;0.40;;;28.20;1.00;;;;;;5140525;27;20874;-72
2022/07/09 12:59:55;;;;;;;0.40;0.30;;;28.50;1.00;;;;;;5140360;27;20494;-71